createdAt,value
2019-02-10T00:00:44.007Z,4.90
2019-02-10T00:03:12.420Z,5.20
2019-02-10T00:05:40.839Z,6.30
2019-02-10T00:08:09.267Z,5.90
2019-02-10T00:10:37.719Z,4.90
2019-02-10T00:13:26.501Z,5.30
2019-02-10T00:15:56.240Z,5.30
2019-02-10T00:18:24.706Z,5.37
2019-02-10T00:20:53.134Z,5.92
2019-02-10T00:23:21.532Z,5.75
2019-02-10T00:25:49.936Z,4.90
2019-02-10T00:28:18.347Z,5.50
2019-02-10T00:30:46.759Z,5.83
2019-02-10T00:33:15.207Z,5.00
2019-02-10T00:35:43.678Z,6.08
2019-02-10T00:38:12.049Z,5.92
2019-02-10T00:40:40.487Z,8.48
2019-02-10T00:43:08.883Z,6.30
2019-02-10T00:45:37.288Z,6.20
2019-02-10T00:48:05.693Z,6.00
2019-02-10T00:50:34.109Z,5.92
2019-02-10T00:53:02.521Z,5.50
2019-02-10T00:55:30.935Z,5.85
2019-02-10T00:57:59.355Z,6.03
2019-02-10T01:00:28.840Z,5.67
2019-02-10T01:02:57.265Z,5.30
2019-02-10T01:05:25.674Z,6.10
2019-02-10T01:07:54.159Z,5.75
2019-02-10T01:10:24.868Z,5.70
2019-02-10T01:12:53.467Z,5.67
2019-02-10T01:15:21.865Z,6.10
2019-02-10T01:17:50.328Z,5.72
2019-02-10T01:20:18.715Z,6.10
2019-02-10T01:22:47.122Z,5.70
2019-02-10T01:25:15.583Z,5.10
2019-02-10T01:27:44.195Z,5.03
2019-02-10T01:30:14.928Z,6.05
2019-02-10T01:32:43.434Z,6.80
2019-02-10T01:35:11.888Z,6.58
2019-02-10T01:37:40.339Z,5.90
2019-02-10T01:40:10.381Z,6.08
2019-02-10T01:42:38.869Z,6.37
2019-02-10T01:45:10.146Z,6.12
2019-02-10T01:47:38.877Z,5.87
2019-02-10T01:50:09.639Z,6.10
2019-02-10T01:52:38.186Z,5.95
2019-02-10T01:55:09.664Z,6.35
2019-02-10T01:57:38.459Z,6.10
2019-02-10T02:00:09.931Z,6.55
2019-02-10T02:02:38.335Z,6.78
2019-02-10T02:05:07.342Z,7.10
2019-02-10T02:07:35.744Z,5.80
2019-02-10T02:10:05.441Z,6.33
2019-02-10T02:12:33.857Z,6.22
2019-02-10T02:15:02.243Z,6.10
2019-02-10T02:17:30.649Z,6.25
2019-02-10T02:19:59.044Z,6.00
2019-02-10T02:22:27.523Z,6.20
2019-02-10T02:24:55.939Z,6.83
2019-02-10T02:27:24.375Z,6.30
2019-02-10T02:29:52.793Z,6.80
2019-02-10T02:32:21.207Z,5.83
2019-02-10T02:34:49.644Z,6.93
2019-02-10T02:37:18.031Z,7.10
2019-02-10T02:39:46.433Z,6.50
2019-02-10T02:42:14.852Z,6.65
2019-02-10T02:44:43.281Z,6.35
2019-02-10T02:47:11.689Z,6.50
2019-02-10T02:49:40.087Z,6.33
2019-02-10T02:52:08.503Z,6.60
2019-02-10T02:54:36.920Z,6.47
2019-02-10T02:57:05.334Z,5.97
2019-02-10T02:59:33.743Z,5.78
2019-02-10T03:02:02.160Z,6.10
2019-02-10T03:04:30.545Z,5.95
2019-02-10T03:06:58.936Z,5.30
2019-02-10T03:09:27.354Z,5.10
2019-02-10T03:11:55.777Z,5.50
2019-02-10T03:14:24.236Z,4.30
2019-02-10T03:16:52.632Z,5.17
2019-02-10T03:19:21.059Z,5.30
2019-02-10T03:21:49.448Z,5.20
2019-02-10T03:24:17.865Z,5.20
2019-02-10T03:26:46.271Z,4.72
2019-02-10T03:29:14.656Z,7.03
2019-02-10T03:31:43.089Z,4.70
2019-02-10T03:34:11.472Z,4.80
2019-02-10T03:36:39.908Z,5.03
2019-02-10T03:39:08.303Z,4.85
2019-02-10T03:41:36.706Z,4.78
2019-02-10T03:44:05.187Z,5.23
2019-02-10T03:46:33.632Z,5.25
2019-02-10T03:49:02.042Z,5.30
2019-02-10T03:51:30.440Z,5.30
2019-02-10T03:53:58.837Z,4.92
2019-02-10T03:56:27.269Z,5.10
2019-02-10T03:58:55.657Z,5.37
2019-02-10T04:01:24.068Z,5.08
2019-02-10T04:03:52.479Z,5.25
2019-02-10T04:06:20.899Z,5.92
2019-02-10T04:08:49.314Z,4.70
2019-02-10T04:11:17.766Z,4.70
2019-02-10T04:13:46.164Z,4.30
2019-02-10T04:16:14.568Z,4.50
2019-02-10T04:18:43.255Z,4.42
2019-02-10T04:21:11.647Z,4.80
2019-02-10T04:23:40.065Z,5.10
2019-02-10T04:26:08.455Z,4.53
2019-02-10T04:28:36.869Z,5.10
2019-02-10T04:31:05.358Z,6.10
2019-02-10T04:33:33.763Z,5.62
2019-02-10T04:36:02.167Z,4.80
2019-02-10T04:38:30.999Z,4.67
2019-02-10T04:40:59.393Z,4.67
2019-02-10T04:43:27.796Z,4.20
2019-02-10T04:45:56.193Z,4.40
2019-02-10T04:48:24.599Z,4.50
2019-02-10T04:50:53.008Z,4.58
2019-02-10T04:53:21.431Z,4.90
2019-02-10T04:56:11.115Z,4.60
2019-02-10T04:58:39.536Z,5.47
2019-02-10T05:01:07.923Z,4.33
2019-02-10T05:03:36.331Z,4.58
2019-02-10T05:06:04.730Z,4.90
2019-02-10T05:08:33.167Z,4.40
2019-02-10T05:11:01.558Z,4.40
2019-02-10T05:13:29.965Z,4.77
2019-02-10T05:15:58.359Z,4.30
2019-02-10T05:18:26.771Z,4.55
2019-02-10T05:20:55.169Z,5.35
2019-02-10T05:23:23.596Z,4.30
2019-02-10T05:25:51.990Z,4.58
2019-02-10T05:28:20.403Z,4.33
2019-02-10T05:30:48.796Z,3.87
2019-02-10T05:33:17.219Z,4.00
2019-02-10T05:35:45.614Z,4.10
2019-02-10T05:38:14.008Z,5.53
2019-02-10T05:40:42.444Z,4.55
2019-02-10T05:43:10.853Z,3.90
2019-02-10T05:45:39.276Z,4.20
2019-02-10T05:48:07.674Z,4.50
2019-02-10T05:50:36.071Z,3.80
2019-02-10T05:53:04.512Z,4.10
2019-02-10T05:55:32.901Z,4.40
2019-02-10T05:58:01.323Z,3.70
2019-02-10T06:00:29.984Z,3.62
2019-02-10T06:02:58.402Z,3.83
2019-02-10T06:05:26.783Z,3.80
2019-02-10T06:07:55.203Z,3.90
2019-02-10T06:10:23.627Z,3.80
2019-02-10T06:12:52.024Z,4.10
2019-02-10T06:15:20.434Z,3.80
2019-02-10T06:17:48.829Z,4.58
2019-02-10T06:20:17.251Z,3.70
2019-02-10T06:22:45.632Z,4.20
2019-02-10T06:25:14.056Z,3.90
2019-02-10T06:27:42.479Z,5.10
2019-02-10T06:30:21.298Z,3.80
2019-02-10T06:32:50.341Z,4.10
2019-02-10T06:35:18.749Z,3.87
2019-02-10T06:37:47.155Z,4.10
2019-02-10T06:40:15.563Z,3.70
2019-02-10T06:42:43.956Z,4.17
2019-02-10T06:45:12.472Z,3.60
2019-02-10T06:47:40.851Z,3.80
2019-02-10T06:50:09.624Z,4.10
2019-02-10T06:52:38.023Z,3.90
2019-02-10T06:55:08.587Z,3.70
2019-02-10T06:57:37.004Z,4.12
2019-02-10T07:00:19.322Z,4.03
2019-02-10T07:03:25.007Z,3.83
2019-02-10T07:05:53.484Z,3.47
2019-02-10T07:08:21.892Z,3.70
2019-02-10T07:10:50.288Z,3.70
2019-02-10T07:13:21.755Z,4.53
2019-02-10T07:16:27.848Z,4.80
2019-02-10T07:19:32.927Z,4.08
2019-02-10T07:22:03.940Z,3.85
2019-02-10T07:24:38.623Z,3.40
2019-02-10T07:27:16.246Z,3.90
2019-02-10T07:29:47.712Z,3.50
2019-02-10T07:32:19.551Z,3.67
2019-02-10T07:34:54.056Z,3.65
2019-02-10T07:37:25.559Z,3.70
2019-02-10T07:40:15.072Z,4.42
2019-02-10T07:42:55.135Z,4.08
2019-02-10T07:45:37.945Z,3.62
2019-02-10T07:48:18.254Z,2.80
2019-02-10T07:50:50.078Z,3.10
2019-02-10T07:53:27.435Z,3.40
2019-02-10T07:56:19.923Z,3.45
2019-02-10T07:58:54.564Z,3.50
2019-02-10T08:01:37.717Z,3.35
2019-02-10T08:04:17.937Z,3.77
2019-02-10T08:06:49.420Z,3.90
2019-02-10T08:09:26.656Z,3.60
2019-02-10T08:12:17.577Z,3.60
2019-02-10T08:14:51.815Z,3.65
2019-02-10T08:17:29.159Z,4.05
2019-02-10T08:20:17.434Z,4.30
2019-02-10T08:23:07.225Z,3.52
2019-02-10T08:26:01.363Z,3.77
2019-02-10T08:28:58.697Z,3.80
2019-02-10T08:32:03.565Z,4.00
2019-02-10T08:34:40.455Z,3.83
2019-02-10T08:37:17.915Z,4.30
2019-02-10T08:40:01.335Z,3.50
2019-02-10T08:42:38.408Z,4.20
2019-02-10T08:45:15.727Z,3.90
2019-02-10T08:48:23.336Z,3.72
2019-02-10T08:50:57.567Z,4.40
2019-02-10T08:53:26.074Z,4.17
2019-02-10T08:55:54.455Z,4.12
2019-02-10T08:58:22.869Z,3.60
2019-02-10T09:00:51.261Z,3.22
2019-02-10T09:03:20.034Z,3.47
2019-02-10T09:05:48.433Z,3.40
2019-02-10T09:08:16.823Z,3.40
2019-02-10T09:10:45.243Z,3.42
2019-02-10T09:13:13.643Z,3.40
2019-02-10T09:15:42.067Z,3.40
2019-02-10T09:18:10.460Z,3.60
2019-02-10T09:20:38.861Z,3.90
2019-02-10T09:23:07.284Z,3.67
2019-02-10T09:25:35.723Z,3.42
2019-02-10T09:28:04.130Z,4.30
2019-02-10T09:30:32.543Z,4.15
2019-02-10T09:33:01.271Z,3.92
2019-02-10T09:35:29.698Z,6.05
2019-02-10T09:37:58.119Z,3.77
2019-02-10T09:40:26.529Z,4.23
2019-02-10T09:42:54.932Z,4.40
2019-02-10T09:45:23.328Z,4.30
2019-02-10T09:47:51.723Z,4.00
2019-02-10T09:50:20.491Z,3.90
2019-02-10T09:52:48.891Z,4.55
2019-02-10T09:55:17.358Z,4.30
2019-02-10T09:57:45.791Z,3.80
2019-02-10T10:00:14.865Z,4.00
2019-02-10T10:02:43.295Z,4.10
2019-02-10T10:05:13.355Z,4.50
2019-02-10T10:07:41.816Z,6.30
2019-02-10T10:10:16.150Z,4.45
2019-02-10T10:12:44.560Z,5.22
2019-02-10T10:15:15.380Z,4.72
2019-02-10T10:17:43.801Z,4.80
2019-02-10T10:20:19.135Z,5.20
2019-02-10T10:22:47.543Z,5.37
2019-02-10T10:25:15.963Z,5.60
2019-02-10T10:27:44.355Z,5.92
2019-02-10T10:30:15.867Z,5.40
2019-02-10T10:32:44.292Z,5.85
2019-02-10T10:35:12.694Z,5.00
2019-02-10T10:37:41.087Z,5.40
2019-02-10T10:40:10.849Z,6.33
2019-02-10T10:42:39.249Z,6.37
2019-02-10T10:45:10.691Z,6.37
2019-02-10T10:47:39.093Z,6.00
2019-02-10T10:50:10.627Z,5.70
2019-02-10T10:52:39.179Z,5.70
2019-02-10T10:55:10.024Z,5.90
2019-02-10T10:57:38.439Z,6.45
2019-02-10T11:00:12.783Z,6.00
2019-02-10T11:02:41.247Z,6.30
2019-02-10T11:05:09.791Z,6.50
2019-02-10T11:07:38.792Z,7.20
2019-02-10T11:10:11.982Z,7.17
2019-02-10T11:12:40.391Z,6.60
2019-02-10T11:15:16.529Z,6.60
2019-02-10T11:17:44.912Z,6.78
2019-02-10T11:20:13.534Z,6.30
2019-02-10T11:22:42.007Z,6.12
2019-02-10T11:25:12.116Z,6.28
2019-02-10T11:27:40.533Z,6.50
2019-02-10T11:30:11.592Z,7.35
2019-02-10T11:32:40.077Z,7.20
2019-02-10T11:35:09.152Z,6.42
2019-02-10T11:37:37.571Z,6.25
2019-02-10T11:40:08.820Z,6.35
2019-02-10T11:42:37.252Z,5.50
2019-02-10T11:45:10.771Z,6.70
2019-02-10T11:47:39.180Z,5.70
2019-02-10T11:50:10.219Z,5.78
2019-02-10T11:52:38.655Z,5.40
2019-02-10T11:55:08.021Z,5.90
2019-02-10T11:57:36.425Z,5.40
2019-02-10T12:00:10.621Z,6.50
2019-02-10T12:02:39.054Z,5.92
2019-02-10T12:05:09.814Z,5.85
2019-02-10T12:07:38.732Z,5.70
2019-02-10T12:10:10.134Z,5.42
2019-02-10T12:12:38.888Z,5.40
2019-02-10T12:15:14.404Z,5.12
2019-02-10T12:17:42.839Z,5.30
2019-02-10T12:20:16.212Z,5.03
2019-02-10T12:22:49.855Z,4.97
2019-02-10T12:25:14.814Z,4.90
2019-02-10T12:27:43.268Z,5.00
2019-02-10T12:30:16.500Z,5.40
2019-02-10T12:32:44.892Z,5.67
2019-02-10T12:35:13.565Z,4.35
2019-02-10T12:37:41.960Z,4.70
2019-02-10T12:40:11.827Z,5.20
2019-02-10T12:42:40.251Z,5.20
2019-02-10T12:45:10.503Z,5.60
2019-02-10T12:47:38.972Z,5.47
2019-02-10T12:50:10.507Z,5.90
2019-02-10T12:52:38.889Z,5.20
2019-02-10T12:55:08.388Z,5.80
2019-02-10T12:57:36.779Z,5.50
2019-02-10T13:00:19.424Z,5.13
2019-02-10T13:02:47.834Z,5.50
2019-02-10T13:05:16.349Z,4.80
2019-02-10T13:07:44.806Z,4.92
2019-02-10T13:10:17.419Z,6.03
2019-02-10T13:12:44.771Z,5.17
2019-02-10T13:15:13.728Z,5.50
2019-02-10T13:17:42.131Z,6.40
2019-02-10T13:20:12.067Z,6.80
2019-02-10T13:22:40.453Z,5.47
2019-02-10T13:25:10.620Z,5.70
2019-02-10T13:27:39.094Z,6.20
2019-02-10T13:30:13.347Z,5.97
2019-02-10T13:32:41.789Z,7.10
2019-02-10T13:35:10.660Z,6.40
2019-02-10T13:37:39.429Z,14.25
2019-02-10T13:40:19.021Z,8.08
2019-02-10T13:42:47.435Z,6.67
2019-02-10T13:45:15.986Z,7.10
2019-02-10T13:47:44.375Z,7.40
2019-02-10T13:50:19.042Z,7.10
2019-02-10T13:52:47.459Z,7.75
2019-02-10T13:55:16.622Z,11.03
2019-02-10T13:57:45.109Z,10.30
2019-02-10T14:00:21.136Z,8.20
2019-02-10T14:02:49.836Z,6.40
2019-02-10T14:05:18.255Z,7.10
2019-02-10T14:07:46.663Z,6.22
2019-02-10T14:10:24.727Z,5.10
2019-02-10T14:12:46.471Z,5.12
2019-02-10T14:15:17.062Z,5.30
2019-02-10T14:17:45.758Z,6.10
2019-02-10T14:20:18.880Z,4.80
2019-02-10T14:22:47.384Z,5.15
2019-02-10T14:25:15.869Z,5.87
2019-02-10T14:27:44.344Z,6.83
2019-02-10T14:30:16.846Z,6.00
2019-02-10T14:32:45.631Z,8.10
2019-02-10T14:35:14.039Z,8.58
2019-02-10T14:37:42.475Z,12.00
2019-02-10T14:40:11.011Z,7.33
2019-02-10T14:42:39.768Z,7.30
2019-02-10T14:45:13.275Z,5.53
2019-02-10T14:47:41.672Z,3.70
2019-02-10T14:50:12.822Z,4.50
2019-02-10T14:52:41.241Z,4.70
2019-02-10T14:55:09.673Z,5.20
2019-02-10T14:57:38.149Z,5.90
2019-02-10T15:00:10.527Z,6.08
2019-02-10T15:02:38.971Z,5.45
2019-02-10T15:05:08.035Z,5.70
2019-02-10T15:07:36.459Z,8.38
2019-02-10T15:10:08.029Z,6.50
2019-02-10T15:12:39.459Z,5.55
2019-02-10T15:15:09.979Z,6.57
2019-02-10T15:17:38.427Z,7.37
2019-02-10T15:20:09.067Z,6.30
2019-02-10T15:22:37.506Z,6.55
2019-02-10T15:25:08.944Z,7.25
2019-02-10T15:27:37.388Z,5.67
2019-02-10T15:30:08.864Z,6.10
2019-02-10T15:32:37.268Z,7.28
2019-02-10T15:35:06.140Z,5.58
2019-02-10T15:37:34.537Z,4.85
2019-02-10T15:40:03.022Z,4.70
2019-02-10T15:42:31.699Z,4.70
2019-02-10T15:45:00.287Z,4.50
2019-02-10T15:47:28.999Z,5.12
2019-02-10T15:49:57.771Z,5.30
2019-02-10T15:52:26.175Z,8.20
2019-02-10T15:54:54.610Z,5.73
2019-02-10T15:57:23.632Z,5.92
2019-02-10T15:59:52.048Z,5.00
2019-02-10T16:02:20.788Z,5.80
2019-02-10T16:04:49.193Z,5.20
2019-02-10T16:07:17.617Z,5.45
2019-02-10T16:09:46.036Z,5.92
2019-02-10T16:12:14.430Z,5.75
2019-02-10T16:14:42.843Z,6.10
2019-02-10T16:17:11.243Z,7.05
2019-02-10T16:19:39.652Z,7.05
2019-02-10T16:22:09.751Z,7.17
2019-02-10T16:24:38.170Z,7.05
2019-02-10T16:27:06.552Z,6.85
2019-02-10T16:29:34.987Z,7.05
2019-02-10T16:32:03.393Z,7.50
2019-02-10T16:34:31.791Z,8.03
2019-02-10T16:37:00.240Z,6.65
2019-02-10T16:39:28.699Z,7.50
2019-02-10T16:41:57.095Z,7.50
2019-02-10T16:44:25.533Z,7.50
2019-02-10T16:46:54.003Z,7.62
2019-02-10T16:49:22.525Z,7.80
2019-02-10T16:51:51.237Z,7.85
2019-02-10T16:54:19.655Z,7.25
2019-02-10T16:56:48.075Z,6.83
2019-02-10T16:59:16.511Z,6.83
2019-02-10T17:01:44.951Z,6.62
2019-02-10T17:04:13.397Z,6.35
2019-02-10T17:06:41.851Z,6.75
2019-02-10T17:09:10.409Z,6.47
2019-02-10T17:11:38.953Z,6.53
2019-02-10T17:14:07.348Z,6.58
2019-02-10T17:16:35.791Z,9.10
2019-02-10T17:19:04.218Z,7.20
2019-02-10T17:21:32.650Z,8.25
2019-02-10T17:24:01.058Z,8.43
2019-02-10T17:26:29.526Z,7.67
2019-02-10T17:28:57.932Z,8.10
2019-02-10T17:31:26.352Z,7.92
2019-02-10T17:33:54.748Z,6.85
2019-02-10T17:36:23.193Z,7.55
2019-02-10T17:38:51.580Z,7.28
2019-02-10T17:41:22.857Z,6.87
2019-02-10T17:43:51.153Z,6.00
2019-02-10T17:46:19.573Z,6.10
2019-02-10T17:48:47.972Z,5.80
2019-02-10T17:51:16.415Z,5.58
2019-02-10T17:53:45.166Z,6.05
2019-02-10T17:56:13.604Z,7.08
2019-02-10T17:58:42.039Z,5.87
2019-02-10T18:01:10.444Z,6.40
2019-02-10T18:03:38.843Z,5.70
2019-02-10T18:06:07.551Z,5.30
2019-02-10T18:08:35.988Z,4.83
2019-02-10T18:11:04.718Z,4.72
2019-02-10T18:13:33.136Z,6.40
2019-02-10T18:16:12.164Z,4.92
2019-02-10T18:18:45.497Z,4.30
2019-02-10T18:21:32.207Z,4.60
2019-02-10T18:24:02.266Z,4.50
2019-02-10T18:26:38.225Z,4.20
2019-02-10T18:29:14.241Z,3.83
2019-02-10T18:31:44.296Z,3.70
2019-02-10T18:34:14.331Z,4.53
2019-02-10T18:36:47.055Z,4.00
2019-02-10T18:39:22.808Z,3.40
2019-02-10T18:42:11.363Z,4.00
2019-02-10T18:44:44.151Z,4.03
2019-02-10T18:47:14.239Z,4.70
2019-02-10T18:49:44.287Z,4.40
2019-02-10T18:52:23.153Z,6.55
2019-02-10T18:54:58.965Z,6.10
2019-02-10T18:57:29.011Z,6.80
2019-02-10T19:00:01.889Z,6.28
2019-02-10T19:02:34.564Z,6.60
2019-02-10T19:05:07.318Z,5.87
2019-02-10T19:07:37.391Z,5.90
2019-02-10T19:10:12.043Z,5.10
2019-02-10T19:12:44.945Z,4.60
2019-02-10T19:15:17.962Z,5.50
2019-02-10T19:17:51.246Z,5.50
2019-02-10T19:20:21.967Z,5.22
2019-02-10T19:22:54.793Z,5.60
2019-02-10T19:25:30.923Z,6.65
2019-02-10T19:28:00.996Z,7.37
2019-02-10T19:30:39.787Z,7.53
2019-02-10T19:33:09.871Z,7.20
2019-02-10T19:35:42.699Z,7.00
2019-02-10T19:38:24.788Z,7.58
2019-02-10T19:41:03.678Z,7.90
2019-02-10T19:43:36.024Z,7.67
2019-02-10T19:46:12.175Z,7.72
2019-02-10T19:48:42.301Z,9.35
2019-02-10T19:51:28.838Z,8.68
2019-02-10T19:54:07.882Z,8.70
2019-02-10T19:56:37.921Z,9.43
2019-02-10T19:59:24.308Z,9.45
2019-02-10T20:02:06.155Z,10.08
2019-02-10T20:04:44.999Z,8.60
2019-02-10T20:07:20.807Z,5.20
2019-02-10T20:09:56.619Z,3.83
2019-02-10T20:12:26.715Z,2.70
2019-02-10T20:15:02.726Z,2.40
2019-02-10T20:17:42.057Z,2.80
2019-02-10T20:20:28.455Z,1.90
2019-02-10T20:23:16.766Z,2.50
2019-02-10T20:26:03.052Z,2.50
2019-02-10T20:28:36.041Z,1.70
2019-02-10T20:31:09.168Z,1.98
2019-02-10T20:33:39.205Z,1.70
2019-02-10T20:36:09.251Z,2.08
2019-02-10T20:38:39.499Z,2.00
2019-02-10T20:41:12.578Z,1.90
2019-02-10T20:43:42.687Z,2.30
2019-02-10T20:46:15.555Z,1.90
2019-02-10T20:48:45.736Z,1.92
2019-02-10T20:51:16.075Z,2.20
2019-02-10T20:53:46.158Z,2.20
2019-02-10T20:56:16.503Z,2.50
2019-02-10T20:58:52.666Z,2.50
2019-02-10T21:01:31.625Z,2.50
2019-02-10T21:04:19.746Z,2.80
2019-02-10T21:06:49.775Z,2.80
2019-02-10T21:09:19.915Z,2.30
2019-02-10T21:12:05.020Z,2.20
2019-02-10T21:14:50.137Z,2.08
2019-02-10T21:17:23.054Z,2.40
2019-02-10T21:20:04.835Z,2.80
2019-02-10T21:22:35.295Z,3.08
2019-02-10T21:25:05.741Z,3.40
2019-02-10T21:27:51.550Z,4.00
2019-02-10T21:30:34.190Z,3.95
2019-02-10T21:33:13.215Z,4.70
2019-02-10T21:35:58.662Z,4.75
2019-02-10T21:38:28.708Z,4.97
2019-02-10T21:41:30.284Z,5.30
2019-02-10T21:44:03.168Z,5.67
2019-02-10T21:46:36.188Z,5.62
2019-02-10T21:49:05.375Z,6.20
2019-02-10T21:51:33.778Z,6.30
2019-02-10T21:54:02.448Z,5.90
2019-02-10T21:56:30.984Z,5.50
2019-02-10T21:58:59.452Z,5.12
2019-02-10T22:01:27.892Z,4.80
2019-02-10T22:03:56.311Z,4.90
2019-02-10T22:06:24.707Z,4.90
2019-02-10T22:08:53.118Z,5.85
2019-02-10T22:11:21.520Z,5.08
2019-02-10T22:13:49.929Z,5.42
2019-02-10T22:16:18.671Z,5.50
2019-02-10T22:18:47.079Z,6.37
2019-02-10T22:21:15.477Z,6.00
2019-02-10T22:23:43.879Z,6.80
2019-02-10T22:26:12.280Z,7.00
2019-02-10T22:28:41.747Z,7.53
2019-02-10T22:31:18.479Z,8.73
2019-02-10T22:33:40.304Z,9.50
2019-02-10T22:36:08.704Z,9.38
2019-02-10T22:38:37.120Z,9.30
2019-02-10T22:41:05.531Z,11.38
2019-02-10T22:43:33.940Z,13.22
2019-02-10T22:46:02.344Z,14.23
2019-02-10T22:48:31.076Z,13.80
2019-02-10T22:50:59.561Z,13.72
2019-02-10T22:53:28.035Z,15.40
2019-02-10T22:55:56.524Z,15.18
2019-02-10T22:58:24.934Z,14.87
2019-02-10T23:00:59.611Z,15.90
2019-02-10T23:03:28.057Z,15.10
2019-02-10T23:05:56.472Z,14.80
2019-02-10T23:08:24.890Z,13.45
2019-02-10T23:10:53.312Z,13.10
2019-02-10T23:13:21.738Z,12.60
2019-02-10T23:15:50.171Z,12.45
2019-02-10T23:18:18.575Z,11.15
2019-02-10T23:20:46.996Z,11.68
2019-02-10T23:23:15.421Z,10.20
2019-02-10T23:25:43.848Z,10.48
2019-02-10T23:28:12.295Z,10.30
2019-02-10T23:30:41.156Z,9.50
2019-02-10T23:33:09.617Z,8.68
2019-02-10T23:35:38.035Z,8.30
2019-02-10T23:38:06.491Z,7.70
2019-02-10T23:40:34.908Z,8.25
2019-02-10T23:43:03.408Z,7.00
2019-02-10T23:45:31.819Z,6.47
2019-02-10T23:48:00.216Z,6.60
2019-02-10T23:50:28.640Z,5.80
2019-02-10T23:52:57.090Z,5.58
2019-02-10T23:55:28.448Z,4.90
2019-02-10T23:57:56.876Z,5.45
